Time;durP1;ratioP1;P1;durP2;ratioP2;P2;SDS_P1;SDS_P2;PMS_P1;PMS_P2;Temp;Humidity;BMP_temperature;BMP_pressure;BME280_temperature;BME280_humidity;BME280_pressure;Samples;Min_cycle;Max_cycle;Signal;HPM_P1;HPM_P2
2022/08/30 00:01:25;;;;;;;4.60;3.00;;;;;;;18.01;64.55;100609.19;5097631;28;20574;-71
2022/08/30 00:03:53;;;;;;;5.82;3.78;;;;;;;17.97;65.63;100612.25;5091087;28;20192;-72
2022/08/30 00:06:21;;;;;;;5.70;2.95;;;;;;;17.77;66.70;100600.03;5099956;28;20739;-72
2022/08/30 00:08:48;;;;;;;11.05;4.07;;;;;;;17.57;69.46;100604.19;5095595;28;20289;-72
2022/08/30 00:11:21;;;;;;;6.50;3.67;;;;;;;17.58;68.33;100604.09;5093290;28;20295;-71
2022/08/30 00:13:50;;;;;;;7.50;3.55;;;;;;;17.63;67.90;100611.94;5095211;28;20192;-71
2022/08/30 00:16:18;;;;;;;6.25;2.63;;;;;;;17.60;68.12;100599.41;5097495;28;20652;-70
2022/08/30 00:18:46;;;;;;;9.32;3.70;;;;;;;17.58;68.29;100604.09;5095489;28;20191;-72
2022/08/30 00:21:13;;;;;;;3.80;3.33;;;;;;;17.54;68.15;100605.28;5093682;28;20196;-72
2022/08/30 00:23:40;;;;;;;10.02;3.72;;;;;;;17.36;69.37;100609.31;5089995;28;20629;-72
2022/08/30 00:26:08;;;;;;;3.58;2.75;;;;;;;17.30;69.86;100602.47;5091540;28;20302;-72
2022/08/30 00:28:35;;;;;;;5.25;3.30;;;;;;;17.22;69.90;100599.41;5091531;28;20234;-71
2022/08/30 00:31:02;;;;;;;3.60;2.95;;;;;;;17.18;69.61;100593.28;5090042;28;20202;-72
2022/08/30 00:33:29;;;;;;;4.97;3.05;;;;;;;17.08;70.61;100601.22;5093400;28;20208;-72
2022/08/30 00:35:57;;;;;;;7.35;3.20;;;;;;;17.07;70.67;100596.78;5090925;28;20658;-71
2022/08/30 00:38:23;;;;;;;12.82;3.15;;;;;;;17.06;70.66;100597.75;5091589;28;20222;-72
2022/08/30 00:40:51;;;;;;;7.95;3.35;;;;;;;17.01;71.02;100599.06;5089127;28;20199;-72
2022/08/30 00:43:23;;;;;;;5.70;3.10;;;;;;;16.90;71.41;100594.34;5094459;28;20208;-72
2022/08/30 00:45:50;;;;;;;5.82;3.75;;;;;;;16.88;73.61;100597.16;5094832;28;20269;-71
2022/08/30 00:48:17;;;;;;;8.48;3.55;;;;;;;16.88;74.20;100599.00;5097317;28;20203;-71
2022/08/30 00:50:46;;;;;;;5.95;3.15;;;;;;;16.81;72.77;100601.28;5100550;28;20195;-71
2022/08/30 00:53:18;;;;;;;5.55;3.50;;;;;;;16.86;72.25;100603.69;5094352;28;20209;-72
2022/08/30 00:55:45;;;;;;;6.25;3.40;;;;;;;16.71;71.96;100605.59;5095890;28;20227;-71
2022/08/30 00:58:20;;;;;;;5.38;3.42;;;;;;;16.67;72.47;100599.47;5094532;28;20214;-73
2022/08/30 01:00:47;;;;;;;4.40;3.10;;;;;;;16.68;73.23;100600.34;5092586;28;20187;-73
2022/08/30 01:03:14;;;;;;;5.07;3.50;;;;;;;16.63;74.04;100610.66;5098442;28;20574;-72
2022/08/30 01:05:41;;;;;;;5.03;3.15;;;;;;;16.56;74.95;100609.34;5104264;28;20192;-72
2022/08/30 01:08:09;;;;;;;5.85;2.92;;;;;;;16.57;74.29;100608.34;5094807;28;20283;-71
2022/08/30 01:10:38;;;;;;;5.60;3.20;;;;;;;16.43;75.85;100612.84;5092973;28;20219;-72
2022/08/30 01:13:05;;;;;;;6.45;3.38;;;;;;;16.37;76.50;100617.81;5094415;28;20192;-72
2022/08/30 01:15:33;;;;;;;5.70;3.33;;;;;;;16.36;76.32;100621.53;5093898;28;20275;-72
2022/08/30 01:18:00;;;;;;;6.43;3.45;;;;;;;16.31;76.17;100615.53;5097158;28;20560;-72
2022/08/30 01:20:33;;;;;;;4.53;3.40;;;;;;;16.30;75.59;100622.78;5095350;28;20204;-71
2022/08/30 01:23:06;;;;;;;7.07;3.65;;;;;;;16.18;77.06;100627.19;5094275;28;20564;-72
2022/08/30 01:25:36;;;;;;;4.00;3.00;;;;;;;16.15;77.62;100615.66;5093909;28;20188;-72
2022/08/30 01:28:06;;;;;;;7.05;3.20;;;;;;;16.13;77.26;100615.75;5094197;28;20225;-72
2022/08/30 01:30:34;;;;;;;8.32;2.97;;;;;;;16.20;76.72;100610.78;5095742;28;20311;-72
2022/08/30 01:33:03;;;;;;;5.53;2.97;;;;;;;16.15;77.04;100618.38;5103993;28;20203;-72
2022/08/30 01:35:37;;;;;;;4.90;3.00;;;;;;;16.12;77.25;100614.00;5092202;28;20227;-72
2022/08/30 01:38:05;;;;;;;6.20;3.20;;;;;;;16.04;77.24;100617.22;5093254;28;20253;-71
2022/08/30 01:40:32;;;;;;;6.40;3.42;;;;;;;15.95;78.48;100617.81;5093348;28;20231;-71
2022/08/30 01:42:58;;;;;;;6.90;3.72;;;;;;;16.01;78.81;100608.41;5103412;28;20200;-72
2022/08/30 01:45:25;;;;;;;6.13;3.53;;;;;;;15.94;79.22;100598.88;5105494;28;20203;-72
2022/08/30 01:47:52;;;;;;;10.85;3.40;;;;;;;15.95;79.02;100595.22;5094122;28;20229;-72
2022/08/30 01:50:18;;;;;;;5.22;3.25;;;;;;;15.99;78.42;100599.50;5096130;28;20204;-72
2022/08/30 01:52:45;;;;;;;5.72;3.50;;;;;;;16.00;78.46;100604.81;5094117;28;20571;-72
2022/08/30 01:55:13;;;;;;;6.25;4.30;;;;;;;15.94;79.22;100607.03;5101416;28;20200;-73
2022/08/30 01:57:40;;;;;;;6.45;3.20;;;;;;;15.91;79.47;100610.81;5093186;28;20226;-71
2022/08/30 02:00:09;;;;;;;7.30;3.17;;;;;;;15.95;78.80;100612.38;5102247;28;20278;-72
2022/08/30 02:02:36;;;;;;;6.20;3.60;;;;;;;15.79;79.21;100607.06;5101673;28;20684;-72
2022/08/30 02:05:03;;;;;;;6.13;3.20;;;;;;;15.77;79.27;100603.56;5101572;28;20664;-71
2022/08/30 02:07:30;;;;;;;5.88;3.10;;;;;;;15.68;80.28;100597.84;5101719;28;20220;-71
2022/08/30 02:09:56;;;;;;;6.65;3.95;;;;;;;15.63;81.57;100593.56;5105828;28;21462;-71
2022/08/30 02:12:24;;;;;;;5.68;3.63;;;;;;;15.68;81.49;100597.84;5103764;28;20238;-71
2022/08/30 02:14:51;;;;;;;6.07;3.28;;;;;;;15.67;81.20;100596.06;5107627;28;20663;-72
2022/08/30 02:17:18;;;;;;;5.90;3.38;;;;;;;15.67;81.19;100605.13;5092908;28;20256;-71
2022/08/30 02:19:45;;;;;;;4.22;3.53;;;;;;;15.60;81.33;100607.34;5108132;28;20268;-72
2022/08/30 02:22:12;;;;;;;5.68;3.40;;;;;;;15.55;81.30;100600.44;5107307;28;20211;-72
2022/08/30 02:24:39;;;;;;;7.63;3.28;;;;;;;15.50;81.37;100595.31;5100968;28;20229;-71
2022/08/30 02:27:06;;;;;;;4.80;3.40;;;;;;;15.36;82.23;100589.88;5097868;28;20223;-71
2022/08/30 02:29:34;;;;;;;6.28;3.90;;;;;;;15.43;82.25;100594.81;5107830;28;20205;-72
2022/08/30 02:32:00;;;;;;;7.18;3.00;;;;;;;15.45;83.15;100602.88;5096202;28;20332;-71
2022/08/30 02:34:27;;;;;;;4.90;3.75;;;;;;;15.54;82.64;100596.00;5097037;28;20203;-72
2022/08/30 02:36:53;;;;;;;5.32;3.22;;;;;;;15.50;83.16;100595.31;5092404;28;20227;-73
2022/08/30 02:39:20;;;;;;;5.30;3.25;;;;;;;15.39;83.45;100593.25;5093710;28;20230;-72
2022/08/30 02:41:47;;;;;;;5.45;3.67;;;;;;;15.42;82.84;100593.09;5092605;28;20205;-72
2022/08/30 02:44:14;;;;;;;10.85;3.50;;;;;;;15.38;82.95;100601.50;5095942;28;20221;-72
2022/08/30 02:46:42;;;;;;;5.60;3.38;;;;;;;15.39;83.43;100603.25;5099876;28;20598;-72
2022/08/30 02:49:09;;;;;;;4.95;3.15;;;;;;;15.47;83.09;100597.31;5097379;28;20633;-73
2022/08/30 02:51:35;;;;;;;6.22;3.38;;;;;;;15.52;83.12;100595.22;5090618;28;20195;-72
2022/08/30 02:54:02;;;;;;;6.30;4.05;;;;;;;15.49;83.70;100600.81;5095407;28;20293;-72
2022/08/30 02:56:28;;;;;;;5.10;3.28;;;;;;;15.46;84.19;100598.31;5096327;28;20230;-72
2022/08/30 02:58:55;;;;;;;5.65;3.20;;;;;;;15.29;85.57;100585.81;5099395;28;20202;-71
2022/08/30 03:01:22;;;;;;;5.47;3.78;;;;;;;15.38;84.88;100580.66;5095827;28;20724;-72
2022/08/30 03:03:50;;;;;;;5.18;3.20;;;;;;;15.53;84.19;100577.94;5096856;28;20192;-73
2022/08/30 03:06:17;;;;;;;3.67;3.25;;;;;;;15.69;83.02;100586.00;5093118;28;20227;-72
2022/08/30 03:08:44;;;;;;;4.05;3.40;;;;;;;15.76;81.36;100588.25;5094064;28;20280;-72
2022/08/30 03:11:12;;;;;;;5.32;3.13;;;;;;;15.88;81.26;100588.44;5092251;28;20197;-72
2022/08/30 03:13:39;;;;;;;4.90;2.88;;;;;;;15.98;80.49;100585.00;5096514;28;20202;-72
2022/08/30 03:16:06;;;;;;;9.32;3.72;;;;;;;16.04;79.90;100581.91;5091913;28;20215;-72
2022/08/30 03:18:33;;;;;;;5.65;3.40;;;;;;;16.16;79.14;100584.78;5094658;28;20225;-71
2022/08/30 03:21:01;;;;;;;4.22;3.83;;;;;;;16.22;78.79;100587.13;5091617;28;20220;-73
2022/08/30 03:23:27;;;;;;;3.80;3.00;;;;;;;16.29;78.91;100585.72;5096137;28;20225;-74
2022/08/30 03:25:54;;;;;;;4.88;3.15;;;;;;;16.39;78.17;100580.53;5097148;28;20203;-73
2022/08/30 03:28:21;;;;;;;4.78;3.13;;;;;;;16.40;78.16;100580.44;5094846;28;20199;-73
2022/08/30 03:30:47;;;;;;;5.47;3.10;;;;;;;16.43;78.28;100582.09;5092186;28;20196;-73
2022/08/30 03:33:14;;;;;;;5.15;3.22;;;;;;;16.51;77.96;100582.47;5093990;28;20199;-71
2022/08/30 03:35:40;;;;;;;8.10;3.20;;;;;;;16.50;77.67;100577.97;5088125;28;20223;-72
2022/08/30 03:38:08;;;;;;;3.92;3.03;;;;;;;16.47;78.01;100576.34;5093712;28;20250;-71
2022/08/30 03:40:35;;;;;;;5.47;3.88;;;;;;;16.42;78.33;100573.06;5096706;28;20224;-72
2022/08/30 03:43:02;;;;;;;5.00;3.30;;;;;;;16.39;78.82;100584.16;5102877;28;20203;-72
2022/08/30 03:45:29;;;;;;;5.63;3.50;;;;;;;16.41;78.63;100586.75;5095775;28;20645;-72
2022/08/30 03:47:55;;;;;;;5.50;3.88;;;;;;;16.42;78.71;100585.78;5100014;28;20220;-72
2022/08/30 03:50:23;;;;;;;7.45;3.28;;;;;;;16.38;79.01;100586.97;5100982;28;20578;-72
2022/08/30 03:52:49;;;;;;;5.57;3.00;;;;;;;16.37;79.16;100588.81;5098640;28;20198;-72
2022/08/30 03:55:17;;;;;;;5.63;3.20;;;;;;;16.35;79.45;100585.34;5092211;28;20204;-71
2022/08/30 03:57:44;;;;;;;6.72;3.25;;;;;;;16.34;80.18;100582.69;5091338;28;20590;-72
2022/08/30 04:00:11;;;;;;;3.78;3.17;;;;;;;16.31;80.29;100578.34;5100326;28;20711;-72
2022/08/30 04:02:38;;;;;;;5.38;3.65;;;;;;;16.26;80.84;100573.22;5092104;28;20206;-72
2022/08/30 04:05:05;;;;;;;7.05;2.70;;;;;;;16.26;81.15;100566.91;5099885;28;20291;-73
2022/08/30 04:07:32;;;;;;;6.95;3.13;;;;;;;16.32;81.38;100576.50;5094312;28;20228;-71
2022/08/30 04:09:59;;;;;;;4.00;3.00;;;;;;;16.32;81.11;100574.63;5099676;28;20210;-72
2022/08/30 04:12:27;;;;;;;5.30;3.08;;;;;;;16.39;80.74;100583.25;5095199;28;20195;-72
2022/08/30 04:14:54;;;;;;;4.88;3.55;;;;;;;16.42;80.69;100575.78;5094130;28;20196;-72
2022/08/30 04:17:20;;;;;;;9.25;3.58;;;;;;;16.43;81.04;100582.09;5091914;28;20218;-72
2022/08/30 04:19:47;;;;;;;6.95;3.38;;;;;;;16.45;81.13;100583.72;5102742;28;20219;-73
2022/08/30 04:22:14;;;;;;;5.50;3.20;;;;;;;16.47;80.99;100584.50;5097248;28;20310;-72
2022/08/30 04:24:41;;;;;;;8.90;3.53;;;;;;;16.45;81.01;100578.28;5096387;28;20649;-72
2022/08/30 04:27:08;;;;;;;5.95;3.55;;;;;;;16.50;80.62;100585.25;5096153;28;20294;-73
2022/08/30 04:29:36;;;;;;;6.93;3.28;;;;;;;16.50;80.96;100590.69;5096264;28;20197;-72
2022/08/30 04:32:03;;;;;;;5.22;3.65;;;;;;;16.51;81.77;100587.91;5101816;28;20200;-71
2022/08/30 04:34:30;;;;;;;21.40;13.35;;;;;;;16.58;80.80;100583.78;5094281;28;20562;-73
2022/08/30 04:36:56;;;;;;;39.17;25.63;;;;;;;16.50;81.25;100590.69;5101535;22;20223;-71
2022/08/30 04:39:23;;;;;;;20.48;14.90;;;;;;;16.49;81.64;100583.53;5056504;28;20209;-71
2022/08/30 04:41:50;;;;;;;11.68;7.30;;;;;;;16.49;82.00;100595.28;5063706;28;20219;-71
2022/08/30 04:44:16;;;;;;;4.28;3.63;;;;;;;16.54;81.63;100592.25;5062359;28;20695;-72
2022/08/30 04:46:44;;;;;;;6.20;3.60;;;;;;;16.47;82.60;100599.94;5058469;28;20223;-72
2022/08/30 04:49:10;;;;;;;6.07;3.40;;;;;;;16.46;82.87;100592.75;5059255;28;20625;-72
2022/08/30 04:51:37;;;;;;;4.65;3.33;;;;;;;16.44;83.26;100592.88;5059636;28;20197;-73
2022/08/30 04:54:04;;;;;;;6.72;3.78;;;;;;;16.49;82.92;100605.28;5058324;28;20208;-72
2022/08/30 04:56:31;;;;;;;13.07;3.92;;;;;;;16.57;82.68;100602.91;5051100;28;20201;-72
2022/08/30 04:58:57;;;;;;;5.32;3.53;;;;;;;16.53;82.78;100604.97;5040616;28;20205;-73
2022/08/30 05:01:27;;;;;;;7.20;3.53;;;;;;;16.54;82.87;100605.84;5057746;28;20224;-74
2022/08/30 05:03:57;;;;;;;4.97;3.40;;;;;;;16.63;82.06;100603.38;5057959;28;20280;-74
2022/08/30 05:06:26;;;;;;;7.95;3.95;;;;;;;16.56;82.92;100602.03;5058634;28;20194;-72
2022/08/30 05:08:53;;;;;;;4.20;3.55;;;;;;;16.59;82.83;100601.81;5057799;28;20201;-73
2022/08/30 05:11:20;;;;;;;7.10;3.15;;;;;;;16.70;82.36;100606.53;5059369;28;20204;-72
2022/08/30 05:13:47;;;;;;;6.63;3.78;;;;;;;16.83;81.62;100609.34;5058843;28;20197;-72
2022/08/30 05:16:16;;;;;;;7.72;3.50;;;;;;;16.88;81.46;100615.34;5058309;28;20716;-74
2022/08/30 05:18:43;;;;;;;10.60;3.90;;;;;;;17.02;81.01;100611.66;5056342;28;20868;-74
2022/08/30 05:21:13;;;;;;;7.20;3.80;;;;;;;17.10;80.77;100609.28;5057131;28;20217;-73
2022/08/30 05:23:41;;;;;;;8.95;3.50;;;;;;;17.15;80.41;100617.13;5055037;28;20197;-73
2022/08/30 05:26:10;;;;;;;9.40;4.78;;;;;;;17.22;79.87;100616.59;5055905;28;20288;-73
2022/08/30 05:28:37;;;;;;;7.40;4.10;;;;;;;17.33;79.07;100625.88;5052908;28;20218;-73
2022/08/30 05:31:13;;;;;;;11.38;4.93;;;;;;;17.46;78.67;100627.63;5076263;28;20210;-74
2022/08/30 05:33:40;;;;;;;13.48;4.00;;;;;;;17.61;77.89;100638.41;5066707;28;20185;-74
2022/08/30 05:36:08;;;;;;;12.73;4.20;;;;;;;17.78;76.77;100639.94;5059239;28;20619;-73
2022/08/30 05:38:36;;;;;;;7.40;3.97;;;;;;;17.86;76.43;100635.72;5077120;28;20224;-74
2022/08/30 05:41:03;;;;;;;9.57;4.28;;;;;;;17.96;76.04;100635.03;5068217;28;20225;-72
2022/08/30 05:43:30;;;;;;;10.05;3.58;;;;;;;18.08;75.41;100637.72;5060524;28;20201;-72
2022/08/30 05:46:00;;;;;;;6.20;3.70;;;;;;;18.21;74.37;100639.56;5056180;28;20292;-71
2022/08/30 05:48:27;;;;;;;8.07;4.40;;;;;;;18.28;74.65;100643.56;5053243;28;20225;-70
2022/08/30 05:51:02;;;;;;;10.27;4.25;;;;;;;18.39;74.65;100646.38;5058048;28;20194;-70
2022/08/30 05:53:29;;;;;;;12.98;4.03;;;;;;;18.44;74.06;100644.16;5056898;28;20662;-72
2022/08/30 05:55:57;;;;;;;7.18;4.28;;;;;;;18.54;73.43;100655.25;5058187;28;20201;-72
2022/08/30 05:58:25;;;;;;;7.25;3.95;;;;;;;18.69;72.34;100650.53;5060983;28;21022;-74
2022/08/30 06:00:51;;;;;;;8.40;3.90;;;;;;;18.87;71.43;100651.88;5055776;28;20248;-71
2022/08/30 06:03:18;;;;;;;8.07;3.58;;;;;;;18.99;70.57;100650.06;5056913;28;20208;-70
2022/08/30 06:05:44;;;;;;;11.88;4.28;;;;;;;19.14;70.17;100657.09;5040266;28;20197;-69
2022/08/30 06:08:11;;;;;;;6.57;3.78;;;;;;;19.31;68.83;100649.44;5068241;28;20288;-72
2022/08/30 06:10:37;;;;;;;6.63;3.90;;;;;;;19.53;67.56;100649.50;5062314;28;20670;-72
2022/08/30 06:13:05;;;;;;;6.68;3.88;;;;;;;19.68;66.40;100646.53;5057125;28;20209;-69
2022/08/30 06:15:32;;;;;;;8.20;3.50;;;;;;;19.65;66.53;100642.22;5054696;28;20207;-71
2022/08/30 06:17:58;;;;;;;8.48;4.13;;;;;;;19.66;66.41;100627.53;5062911;28;20240;-71
2022/08/30 06:20:25;;;;;;;5.78;3.60;;;;;;;19.82;65.67;100634.53;5060126;28;20600;-71
2022/08/30 06:22:51;;;;;;;7.05;3.70;;;;;;;19.92;64.59;100632.78;5055516;28;20204;-71
2022/08/30 06:25:18;;;;;;;9.83;3.90;;;;;;;20.10;63.53;100634.06;5055603;28;20209;-71
2022/08/30 06:27:45;;;;;;;9.93;4.63;;;;;;;20.22;63.07;100640.38;5054805;28;20460;-72
2022/08/30 06:30:13;;;;;;;6.73;4.13;;;;;;;20.24;62.61;100637.50;5055496;28;20211;-71
2022/08/30 06:32:40;;;;;;;5.13;3.67;;;;;;;20.46;61.47;100642.06;5055800;28;20448;-71
2022/08/30 06:35:08;;;;;;;10.13;3.70;;;;;;;20.57;60.85;100640.19;5054899;28;20444;-70
2022/08/30 06:37:34;;;;;;;9.00;4.00;;;;;;;20.78;59.60;100643.03;5054141;28;20995;-71
2022/08/30 06:40:03;;;;;;;5.07;3.60;;;;;;;20.94;59.23;100650.81;5059974;28;20439;-71
2022/08/30 06:42:32;;;;;;;8.40;4.07;;;;;;;21.26;58.46;100647.16;5056652;28;20447;-70
2022/08/30 06:44:59;;;;;;;10.33;5.10;;;;;;;21.57;57.22;100641.75;5050454;28;20470;-73
2022/08/30 06:47:28;;;;;;;6.03;4.00;;;;;;;21.89;56.55;100646.28;5057360;28;20479;-73
2022/08/30 06:49:54;;;;;;;5.03;3.47;;;;;;;22.17;55.39;100640.06;5060057;28;20469;-71
2022/08/30 06:52:21;;;;;;;8.10;3.40;;;;;;;22.39;54.29;100647.25;5057014;28;20458;-71
2022/08/30 06:54:48;;;;;;;5.93;3.37;;;;;;;22.58;53.79;100656.53;5053592;28;20817;-71
2022/08/30 06:57:15;;;;;;;4.57;3.10;;;;;;;22.47;52.74;100655.63;5053455;28;20501;-72
2022/08/30 06:59:41;;;;;;;7.00;3.53;;;;;;;22.59;52.43;100656.41;5054664;28;20464;-71
2022/08/30 07:02:08;;;;;;;6.27;3.40;;;;;;;22.49;52.27;100660.97;5054876;28;20483;-72
2022/08/30 07:04:37;;;;;;;5.33;3.00;;;;;;;22.67;51.77;100666.66;5054970;28;20949;-71
2022/08/30 07:07:04;;;;;;;6.23;3.20;;;;;;;22.88;50.85;100658.28;5055745;28;20494;-71
2022/08/30 07:09:31;;;;;;;5.57;3.17;;;;;;;23.00;50.42;100650.84;5054049;28;20456;-72
2022/08/30 07:12:02;;;;;;;4.50;3.43;;;;;;;23.09;49.89;100656.31;5055510;28;20503;-72
2022/08/30 07:14:29;;;;;;;3.00;2.70;;;;;;;23.28;48.69;100660.06;5056767;28;20459;-71
2022/08/30 07:16:55;;;;;;;6.70;3.30;;;;;;;23.20;49.24;100654.44;5069853;28;20456;-72
2022/08/30 07:19:21;;;;;;;7.50;4.10;;;;;;;23.36;48.64;100657.47;5064348;28;20442;-70
2022/08/30 07:21:50;;;;;;;4.40;3.53;;;;;;;23.63;47.80;100656.72;5064220;28;21035;-70
2022/08/30 07:24:17;;;;;;;6.30;2.97;;;;;;;23.97;46.41;100667.22;5055977;28;20220;-69
2022/08/30 07:26:47;;;;;;;5.53;2.90;;;;;;;24.38;45.19;100669.63;5055362;28;20483;-72
2022/08/30 07:29:14;;;;;;;5.90;3.00;;;;;;;25.11;43.69;100673.25;5053425;28;20452;-71
2022/08/30 07:31:41;;;;;;;6.43;3.00;;;;;;;25.44;42.49;100673.59;5053624;28;20436;-71
2022/08/30 07:34:08;;;;;;;4.77;3.37;;;;;;;25.99;41.39;100672.44;5054487;28;20466;-72
2022/08/30 07:36:35;;;;;;;3.27;2.90;;;;;;;26.04;40.60;100675.56;5054469;28;20446;-70
2022/08/30 07:39:04;;;;;;;5.33;3.23;;;;;;;26.17;40.76;100676.00;5053960;28;20449;-71
2022/08/30 07:41:34;;;;;;;4.93;3.33;;;;;;;26.67;40.18;100677.09;5053806;28;20515;-70
2022/08/30 07:44:01;;;;;;;4.70;3.20;;;;;;;26.91;39.76;100678.19;5053790;28;20458;-69
2022/08/30 07:46:27;;;;;;;7.83;2.80;;;;;;;27.22;39.12;100681.22;5052942;28;20439;-69
2022/08/30 07:48:54;;;;;;;5.00;3.60;;;;;;;27.33;38.52;100672.56;5053231;28;21214;-72
2022/08/30 07:51:23;;;;;;;3.47;2.67;;;;;;;27.67;37.94;100680.69;5053512;28;20439;-72
2022/08/30 07:53:51;;;;;;;4.33;3.20;;;;;;;27.88;37.24;100673.78;5053778;28;20446;-71
2022/08/30 07:56:19;;;;;;;6.37;3.00;;;;;;;28.05;37.19;100677.38;5052572;28;20463;-70
2022/08/30 07:58:47;;;;;;;5.40;3.30;;;;;;;28.24;36.91;100687.19;5057598;28;20459;-71
2022/08/30 08:01:14;;;;;;;6.17;3.40;;;;;;;28.30;36.89;100680.06;5057429;28;20490;-70
2022/08/30 08:03:42;;;;;;;6.93;3.30;;;;;;;28.94;35.85;100686.34;5055791;28;20436;-70
2022/08/30 08:06:12;;;;;;;5.77;3.30;;;;;;;29.35;35.02;100691.66;5054947;28;20468;-71
2022/08/30 08:08:40;;;;;;;4.70;2.93;;;;;;;29.49;34.64;100687.22;5054035;28;20463;-72
2022/08/30 08:11:08;;;;;;;5.50;3.73;;;;;;;29.87;34.55;100687.22;5053602;28;20949;-70
2022/08/30 08:13:36;;;;;;;7.03;2.87;;;;;;;30.29;33.44;100688.56;5053813;28;20450;-70
2022/08/30 08:16:03;;;;;;;4.70;3.00;;;;;;;31.28;32.83;100691.72;5052991;28;20444;-69
2022/08/30 08:18:30;;;;;;;3.77;2.77;;;;;;;31.61;31.62;100691.19;5052874;28;20463;-72
2022/08/30 08:20:57;;;;;;;3.80;2.50;;;;;;;32.41;31.31;100691.81;5053585;28;20491;-70
2022/08/30 08:23:24;;;;;;;3.83;3.00;;;;;;;32.62;30.96;100688.06;5054077;28;20824;-71
2022/08/30 08:25:51;;;;;;;3.80;2.67;;;;;;;33.01;30.43;100695.72;5054260;28;20466;-71
2022/08/30 08:28:18;;;;;;;3.43;2.60;;;;;;;32.99;30.43;100692.31;5063791;28;20477;-71
2022/08/30 08:30:46;;;;;;;4.67;2.90;;;;;;;33.09;30.52;100689.13;5075288;28;20446;-72
2022/08/30 08:33:14;;;;;;;3.27;2.47;;;;;;;32.83;30.91;100692.66;5073393;28;20475;-71
2022/08/30 08:35:40;;;;;;;3.43;2.40;;;;;;;33.30;30.27;100690.88;5056715;28;20478;-72
2022/08/30 08:38:07;;;;;;;4.23;2.70;;;;;;;33.42;29.96;100691.13;5064597;28;20476;-72
2022/08/30 08:40:43;;;;;;;4.57;2.60;;;;;;;33.91;29.41;100689.03;5058363;28;20872;-71
2022/08/30 08:43:12;;;;;;;6.13;2.70;;;;;;;33.92;29.16;100690.72;5050388;28;20462;-71
2022/08/30 08:45:51;;;;;;;4.43;2.30;;;;;;;34.19;28.90;100686.88;5055898;28;20459;-73
2022/08/30 08:48:27;;;;;;;4.50;3.00;;;;;;;33.87;29.12;100687.72;5051704;28;20494;-74
2022/08/30 08:53:40;;;;;;;3.73;2.60;;;;;;;34.37;28.65;100690.88;5052343;28;20422;-74
2022/08/30 08:56:12;;;;;;;3.00;2.40;;;;;;;34.93;28.00;100692.22;5052918;28;20540;-72
2022/08/30 08:58:43;;;;;;;3.73;2.73;;;;;;;35.01;27.82;100690.00;5053063;28;20547;-74
2022/08/30 09:01:14;;;;;;;4.93;2.90;;;;;;;35.09;27.62;100686.94;5053673;28;20443;-73
2022/08/30 09:03:41;;;;;;;7.83;2.73;;;;;;;34.30;28.23;100687.25;5054450;28;20450;-74
2022/08/30 09:06:22;;;;;;;6.10;2.70;;;;;;;35.74;26.86;100683.09;5064817;28;20518;-72
2022/08/30 09:08:49;;;;;;;3.80;2.70;;;;;;;35.36;27.32;100675.59;5057499;28;20435;-74
2022/08/30 09:11:22;;;;;;;3.30;2.40;;;;;;;35.68;26.90;100684.88;5065254;28;20557;-73
2022/08/30 09:13:49;;;;;;;4.57;2.80;;;;;;;35.87;26.60;100682.97;5055391;28;20518;-74
2022/08/30 09:16:52;;;;;;;2.87;2.53;;;;;;;35.70;26.50;100681.81;5054407;28;20534;-73
2022/08/30 09:19:41;;;;;;;3.00;2.20;;;;;;;35.79;26.23;100677.63;5059081;28;20427;-73
2022/08/30 09:22:21;;;;;;;5.13;2.53;;;;;;;34.81;27.21;100676.13;5037712;28;20460;-73
2022/08/30 09:24:50;;;;;;;3.73;2.83;;;;;;;35.33;27.06;100670.47;5050411;28;20442;-73
2022/08/30 09:27:21;;;;;;;4.90;2.17;;;;;;;35.67;26.55;100666.34;5056372;28;20838;-75
2022/08/30 09:29:57;;;;;;;3.50;2.60;;;;;;;36.11;25.90;100660.75;5055826;28;20950;-74
2022/08/30 09:32:35;;;;;;;6.23;2.57;;;;;;;36.93;25.13;100669.72;5056052;28;20467;-73
2022/08/30 09:35:01;;;;;;;4.57;2.67;;;;;;;37.23;24.58;100665.22;5055153;28;20463;-75
2022/08/30 09:37:36;;;;;;;6.10;3.03;;;;;;;37.70;24.21;100648.47;5052858;28;20492;-73
2022/08/30 09:40:14;;;;;;;7.00;2.47;;;;;;;37.29;24.44;100661.41;5054925;28;20530;-73
2022/08/30 09:42:41;;;;;;;4.90;3.20;;;;;;;37.73;24.14;100646.03;5053786;28;20466;-74
2022/08/30 09:45:19;;;;;;;3.10;2.57;;;;;;;38.52;23.51;100654.06;5054486;28;20459;-73
2022/08/30 09:47:47;;;;;;;9.37;2.90;;;;;;;39.31;23.24;100655.34;5048076;28;20483;-73
2022/08/30 09:50:17;;;;;;;4.40;2.50;;;;;;;39.33;22.49;100651.16;5064285;28;20530;-76
2022/08/30 09:53:00;;;;;;;5.03;2.33;;;;;;;40.33;21.97;100654.22;5054967;28;20824;-74
2022/08/30 09:55:45;;;;;;;5.20;2.53;;;;;;;40.22;21.86;100646.69;5063702;28;20441;-72
2022/08/30 09:58:22;;;;;;;4.17;2.17;;;;;;;40.92;21.37;100641.41;5057163;28;20494;-73
2022/08/30 10:01:00;;;;;;;6.40;2.33;;;;;;;41.46;20.94;100644.22;5063696;28;20442;-74
2022/08/30 10:03:36;;;;;;;3.20;1.90;;;;;;;41.02;20.77;100645.22;5055865;28;21031;-74
2022/08/30 10:06:10;;;;;;;2.60;2.03;;;;;;;41.61;20.30;100632.22;5056871;28;20519;-71
2022/08/30 10:08:48;;;;;;;4.80;2.60;;;;;;;42.16;20.12;100632.91;5054849;28;20463;-72
2022/08/30 10:11:24;;;;;;;2.70;2.20;;;;;;;42.16;20.11;100630.94;5054071;28;20440;-75
2022/08/30 10:14:29;;;;;;;2.83;2.27;;;;;;;42.23;19.59;100636.34;5056131;28;20463;-75
2022/08/30 10:17:01;;;;;;;4.73;2.20;;;;;;;42.23;20.12;100625.03;4961191;28;20488;-72
2022/08/30 10:19:46;;;;;;;2.87;2.40;;;;;;;41.72;20.15;100622.69;4972770;28;20522;-72
2022/08/30 10:22:17;;;;;;;4.90;2.30;;;;;;;41.78;20.16;100618.78;4970729;28;20458;-74
2022/08/30 10:24:47;;;;;;;2.50;2.30;;;;;;;42.12;20.09;100617.59;4955352;29;20444;-74
2022/08/30 10:27:17;;;;;;;2.53;1.80;;;;;;;43.23;19.30;100624.81;4953614;29;20567;-73
2022/08/30 10:29:47;;;;;;;2.90;1.97;;;;;;;43.08;19.17;100619.97;4953161;29;20460;-73
2022/08/30 10:32:20;;;;;;;4.70;2.90;;;;;;;43.53;18.81;100608.94;4955742;29;20578;-72
2022/08/30 10:34:53;;;;;;;5.07;3.47;;;;;;;43.30;18.66;100618.88;4955688;29;20475;-72
2022/08/30 10:37:23;;;;;;;3.33;2.07;;;;;;;42.51;19.30;100606.75;4999125;22;21522;-74
2022/08/30 10:39:54;;;;;;;5.00;2.20;;;;;;;44.00;18.59;100615.41;5083152;28;20431;-75
2022/08/30 10:42:24;;;;;;;5.03;2.53;;;;;;;44.50;17.95;100610.75;5084703;28;20871;-75
2022/08/30 10:44:56;;;;;;;5.00;2.27;;;;;;;44.60;17.39;100604.19;5084690;28;20535;-76
2022/08/30 10:47:30;;;;;;;3.17;2.30;;;;;;;44.59;17.72;100602.47;5084350;28;20454;-74
2022/08/30 10:50:06;;;;;;;3.97;2.20;;;;;;;44.81;17.77;100602.91;5082727;28;20480;-75
2022/08/30 10:52:38;;;;;;;6.63;2.40;;;;;;;45.55;17.31;100602.94;5087025;28;20476;-75
2022/08/30 10:55:09;;;;;;;3.00;1.90;;;;;;;45.17;16.94;100594.16;5086075;28;20441;-75
2022/08/30 10:57:44;;;;;;;4.50;2.10;;;;;;;45.68;17.32;100595.72;5081496;28;21007;-76
2022/08/30 11:00:13;;;;;;;6.33;1.90;;;;;;;44.82;17.61;100598.09;5083495;28;20464;-74
2022/08/30 11:03:19;;;;;;;3.83;2.00;;;;;;;44.06;17.39;100586.78;5082186;28;20541;-73
2022/08/30 11:06:00;;;;;;;4.03;2.10;;;;;;;44.06;17.52;100594.44;5076181;28;20458;-73
2022/08/30 11:08:57;;;;;;;5.47;2.07;;;;;;;44.75;17.15;100587.03;5074107;28;20486;-73
2022/08/30 11:11:38;;;;;;;2.97;1.87;;;;;;;43.35;17.24;100584.00;5074760;28;20458;-75
2022/08/30 11:14:09;;;;;;;4.20;1.80;;;;;;;44.03;17.01;100583.66;5084431;28;20445;-74
2022/08/30 11:16:39;;;;;;;6.97;2.00;;;;;;;43.33;17.09;100592.81;5076170;28;20467;-76
2022/08/30 11:19:16;;;;;;;2.33;1.90;;;;;;;43.92;17.51;100583.66;5074818;28;20477;-75
2022/08/30 11:21:45;;;;;;;2.50;2.13;;;;;;;43.78;17.03;100584.53;5073786;28;20459;-75
2022/08/30 11:24:15;;;;;;;2.60;2.33;;;;;;;45.11;16.74;100583.97;5077530;28;20481;-73
2022/08/30 11:27:05;;;;;;;2.23;1.93;;;;;;;45.68;16.32;100579.53;5075617;28;20443;-75
2022/08/30 11:29:39;;;;;;;2.60;1.80;;;;;;;44.17;16.58;100575.38;5062552;28;20454;-76
2022/08/30 11:32:38;;;;;;;4.73;2.20;;;;;;;44.73;17.02;100572.25;5073343;28;20482;-74
2022/08/30 11:35:05;;;;;;;4.60;2.27;;;;;;;45.20;16.56;100567.97;5068677;28;20455;-74
2022/08/30 11:37:37;;;;;;;2.17;1.70;;;;;;;44.99;16.72;100575.81;5081392;28;20509;-75